Time;durP1;ratioP1;P1;durP2;ratioP2;P2;SDS_P1;SDS_P2;PMS_P1;PMS_P2;Temp;Humidity;BMP_temperature;BMP_pressure;BME280_temperature;BME280_humidity;BME280_pressure;Samples;Min_cycle;Max_cycle;Signal;HPM_P1;HPM_P2
2022/10/10 00:01:12;;;;;;;;;;;;;;;;;;4961974;28;19940;-93
2022/10/10 00:03:38;;;;;;;;;;;;;;;;;;4978175;28;19922;-92
2022/10/10 00:06:04;;;;;;;;;;;;;;;;;;4981210;28;19927;-93
2022/10/10 00:08:29;;;;;;;;;;;;;;;;;;4976125;28;19953;-93
2022/10/10 00:10:54;;;;;;;;;;;;;;;;;;4975254;28;19913;-93
2022/10/10 00:13:20;;;;;;;;;;;;;;;;;;4979046;28;19923;-92
2022/10/10 00:15:45;;;;;;;;;;;;;;;;;;4991967;28;19922;-92
2022/10/10 00:18:11;;;;;;;;;;;;;;;;;;4970203;28;20385;-94
2022/10/10 00:20:36;;;;;;;;;;;;;;;;;;4980050;28;19914;-94
2022/10/10 00:23:02;;;;;;;;;;;;;;;;;;4961333;28;19922;-91
2022/10/10 00:25:27;;;;;;;;;;;;;;;;;;4961234;28;20097;-93
2022/10/10 00:27:53;;;;;;;;;;;;;;;;;;4977099;28;19944;-93
2022/10/10 00:30:18;;;;;;;;;;;;;;;;;;4960127;28;20619;-92
2022/10/10 00:32:44;;;;;;;;;;;;;;;;;;4960372;28;20286;-92
2022/10/10 00:35:09;;;;;;;;;;;;;;;;;;4959842;28;19925;-94
2022/10/10 00:37:35;;;;;;;;;;;;;;;;;;4960446;28;19922;-92
2022/10/10 00:40:00;;;;;;;;;;;;;;;;;;4978127;28;19981;-92
2022/10/10 00:42:26;;;;;;;;;;;;;;;;;;4977453;28;20378;-92
2022/10/10 00:45:10;;;;;;;;;;;;;;;;;;4977973;28;19922;-92
2022/10/10 00:47:35;;;;;;;;;;;;;;;;;;4978512;28;20291;-93
2022/10/10 00:50:01;;;;;;;;;;;;;;;;;;4977902;28;20009;-92
2022/10/10 00:52:26;;;;;;;;;;;;;;;;;;4977811;28;20014;-92
2022/10/10 00:54:51;;;;;;;;;;;;;;;;;;4961548;28;19922;-93
2022/10/10 00:57:17;;;;;;;;;;;;;;;;;;4958537;28;19925;-92
2022/10/10 00:59:44;;;;;;;;;;;;;;;;;;4977280;28;19925;-92
2022/10/10 01:02:09;;;;;;;;;;;;;;;;;;4976599;28;19922;-91
2022/10/10 01:04:40;;;;;;;;;;;;;;;;;;4977687;28;19922;-94
2022/10/10 01:07:10;;;;;;;;;;;;;;;;;;4976313;28;19918;-93
2022/10/10 01:09:37;;;;;;;;;;;;;;;;;;4977580;28;19914;-92
2022/10/10 01:12:14;;;;;;;;;;;;;;;;;;4978025;28;19928;-94
2022/10/10 01:14:55;;;;;;;;;;;;;;;;;;4980533;28;20008;-92
2022/10/10 01:17:27;;;;;;;;;;;;;;;;;;4980307;28;19922;-91
2022/10/10 01:20:12;;;;;;;;;;;;;;;;;;4980610;28;20028;-91
2022/10/10 01:22:44;;;;;;;;;;;;;;;;;;4980032;28;19952;-92
2022/10/10 01:25:36;;;;;;;;;;;;;;;;;;4980375;28;20021;-93
2022/10/10 01:28:11;;;;;;;;;;;;;;;;;;4924611;28;19926;-94
2022/10/10 01:30:37;;;;;;;;;;;;;;;;;;4977067;28;19918;-94
2022/10/10 01:33:03;;;;;;;;;;;;;;;;;;4976878;28;20016;-94
2022/10/10 01:35:58;;;;;;;;;;;;;;;;;;4962060;28;19949;-92
2022/10/10 01:38:26;;;;;;;;;;;;;;;;;;4956874;28;20440;-92
2022/10/10 01:40:53;;;;;;;;;;;;;;;;;;4975368;28;19918;-93
2022/10/10 01:43:19;;;;;;;;;;;;;;;;;;4975984;28;20298;-93
2022/10/10 01:45:49;;;;;;;;;;;;;;;;;;4975807;28;19924;-93
2022/10/10 01:48:15;;;;;;;;;;;;;;;;;;4975467;28;20428;-91
2022/10/10 01:50:59;;;;;;;;;;;;;;;;;;4976782;28;19924;-93
2022/10/10 01:53:48;;;;;;;;;;;;;;;;;;4960307;28;20001;-93
2022/10/10 01:56:29;;;;;;;;;;;;;;;;;;4944723;28;19958;-92
2022/10/10 01:59:06;;;;;;;;;;;;;;;;;;4957916;28;19915;-94
2022/10/10 02:01:32;;;;;;;;;;;;;;;;;;4975164;28;19924;-92
2022/10/10 02:04:06;;;;;;;;;;;;;;;;;;4975471;28;19918;-94
2022/10/10 02:06:40;;;;;;;;;;;;;;;;;;4957963;28;19949;-94
2022/10/10 02:09:12;;;;;;;;;;;;;;;;;;4975815;28;19928;-92
2022/10/10 02:11:38;;;;;;;;;;;;;;;;;;4975653;28;19918;-90
2022/10/10 02:14:26;;;;;;;;;;;;;;;;;;5012058;23;20299;-94
2022/10/10 02:16:53;;;;;;;;;;;;;;;;;;4903177;29;19919;-91
2022/10/10 02:19:20;;;;;;;;;;;;;;;;;;4921318;29;19923;-92
2022/10/10 02:21:46;;;;;;;;;;;;;;;;;;4902347;29;19923;-94
2022/10/10 02:24:12;;;;;;;;;;;;;;;;;;4902919;29;19954;-93
2022/10/10 02:26:38;;;;;;;;;;;;;;;;;;4920823;29;19919;-89
2022/10/10 02:29:13;;;;;;;;;;;;;;;;;;4920648;29;19923;-94
2022/10/10 02:31:42;;;;;;;;;;;;;;;;;;4918263;29;20454;-93
2022/10/10 02:34:10;;;;;;;;;;;;;;;;;;4918356;29;19923;-93
2022/10/10 02:36:37;;;;;;;;;;;;;;;;;;4902094;29;19919;-93
2022/10/10 02:39:03;;;;;;;;;;;;;;;;;;4920278;29;20010;-93
2022/10/10 02:41:29;;;;;;;;;;;;;;;;;;4904190;29;20286;-94
2022/10/10 02:43:55;;;;;;;;;;;;;;;;;;4921348;29;19919;-93
2022/10/10 02:46:21;;;;;;;;;;;;;;;;;;4904595;29;19975;-92
2022/10/10 02:48:47;;;;;;;;;;;;;;;;;;4924946;29;19920;-93
2022/10/10 02:51:15;;;;;;;;;;;;;;;;;;4906744;29;19923;-92
2022/10/10 02:53:40;;;;;;;;;;;;;;;;;;4928452;29;19919;-93
2022/10/10 02:56:06;;;;;;;;;;;;;;;;;;4929865;29;19919;-93
2022/10/10 02:58:34;;;;;;;;;;;;;;;;;;4928059;29;20017;-93
2022/10/10 03:01:00;;;;;;;;;;;;;;;;;;4923825;29;19961;-93
2022/10/10 03:03:25;;;;;;;;;;;;;;;;;;4922352;29;19966;-93
2022/10/10 03:05:51;;;;;;;;;;;;;;;;;;4922340;29;20295;-92
2022/10/10 03:08:16;;;;;;;;;;;;;;;;;;4906025;29;20363;-93
2022/10/10 03:10:58;;;;;;;;;;;;;;;;;;4909108;29;19919;-93
2022/10/10 03:13:24;;;;;;;;;;;;;;;;;;4927000;29;20033;-92
2022/10/10 03:15:49;;;;;;;;;;;;;;;;;;4940758;29;20390;-92
2022/10/10 03:18:15;;;;;;;;;;;;;;;;;;4923984;29;19978;-93
2022/10/10 03:20:40;;;;;;;;;;;;;;;;;;4927336;29;20021;-92
2022/10/10 03:23:05;;;;;;;;;;;;;;;;;;4924844;29;19923;-93
2022/10/10 03:25:33;;;;;;;;;;;;;;;;;;4927339;29;19965;-90
2022/10/10 03:27:59;;;;;;;;;;;;;;;;;;4928619;29;19919;-93
2022/10/10 03:30:30;;;;;;;;;;;;;;;;;;4942842;29;19919;-92
2022/10/10 03:32:56;;;;;;;;;;;;;;;;;;4940465;29;20287;-92
2022/10/10 03:35:21;;;;;;;;;;;;;;;;;;4938182;29;19934;-90
2022/10/10 03:37:46;;;;;;;;;;;;;;;;;;4938140;29;19923;-94
2022/10/10 03:40:12;;;;;;;;;;;;;;;;;;4921148;29;19930;-94
2022/10/10 03:42:37;;;;;;;;;;;;;;;;;;4938245;29;19923;-94
2022/10/10 03:45:03;;;;;;;;;;;;;;;;;;4938850;29;19933;-92
2022/10/10 03:47:29;;;;;;;;;;;;;;;;;;4938901;29;19923;-93
2022/10/10 03:49:54;;;;;;;;;;;;;;;;;;4932710;29;20267;-93
2022/10/10 03:52:20;;;;;;;;;;;;;;;;;;4922920;29;20366;-93
2022/10/10 03:54:46;;;;;;;;;;;;;;;;;;4939493;29;19925;-92
2022/10/10 03:57:14;;;;;;;;;;;;;;;;;;4922047;29;19918;-94
2022/10/10 03:59:40;;;;;;;;;;;;;;;;;;4922332;29;20407;-91
2022/10/10 04:02:05;;;;;;;;;;;;;;;;;;4938606;29;19918;-91
2022/10/10 04:04:31;;;;;;;;;;;;;;;;;;4920781;29;19926;-91
2022/10/10 04:06:57;;;;;;;;;;;;;;;;;;4954589;23;19998;-90
2022/10/10 04:09:22;;;;;;;;;;;;;;;;;;4972913;28;19926;-90
2022/10/10 04:11:47;;;;;;;;;;;;;;;;;;4979392;28;19907;-92
2022/10/10 04:14:13;;;;;;;;;;;;;;;;;;4976297;28;19930;-92
2022/10/10 04:16:38;;;;;;;;;;;;;;;;;;4974688;28;19949;-92
2022/10/10 04:19:04;;;;;;;;;;;;;;;;;;4970674;29;19937;-93
2022/10/10 04:21:29;;;;;;;;;;;;;;;;;;4964516;28;19918;-94
2022/10/10 04:23:57;;;;;;;;;;;;;;;;;;4961678;28;19950;-93
2022/10/10 04:26:22;;;;;;;;;;;;;;;;;;4957728;28;19918;-91
2022/10/10 04:28:48;;;;;;;;;;;;;;;;;;4957612;29;19921;-95
2022/10/10 04:31:13;;;;;;;;;;;;;;;;;;4957981;28;20286;-91
2022/10/10 04:33:45;;;;;;;;;;;;;;;;;;4960528;28;20351;-93
2022/10/10 04:36:10;;;;;;;;;;;;;;;;;;4957187;29;19926;-92
2022/10/10 04:38:36;;;;;;;;;;;;;;;;;;4957094;28;19919;-92
2022/10/10 04:41:02;;;;;;;;;;;;;;;;;;4955592;28;19914;-93
2022/10/10 04:43:27;;;;;;;;;;;;;;;;;;4957191;28;19918;-93
2022/10/10 04:45:54;;;;;;;;;;;;;;;;;;4956841;29;19965;-94
2022/10/10 04:48:23;;;;;;;;;;;;;;;;;;4957693;29;19974;-93
2022/10/10 04:50:58;;;;;;;;;;;;;;;;;;4958647;28;19918;-92
2022/10/10 04:53:24;;;;;;;;;;;;;;;;;;4976076;28;19926;-91
2022/10/10 04:55:49;;;;;;;;;;;;;;;;;;4957412;28;19922;-93
2022/10/10 04:58:15;;;;;;;;;;;;;;;;;;4975916;28;19928;-92
2022/10/10 05:00:40;;;;;;;;;;;;;;;;;;4958299;28;19918;-94
2022/10/10 05:03:06;;;;;;;;;;;;;;;;;;4959164;28;20387;-93
2022/10/10 05:05:32;;;;;;;;;;;;;;;;;;4957220;28;19968;-91
2022/10/10 05:07:57;;;;;;;;;;;;;;;;;;4957759;29;20363;-91
2022/10/10 05:10:26;;;;;;;;;;;;;;;;;;4959099;29;19919;-90
2022/10/10 05:12:54;;;;;;;;;;;;;;;;;;4959245;28;20379;-91
2022/10/10 05:15:21;;;;;;;;;;;;;;;;;;4946788;28;19971;-90
2022/10/10 05:17:47;;;;;;;;;;;;;;;;;;4944795;29;19922;-93
2022/10/10 05:20:12;;;;;;;;;;;;;;;;;;4943321;28;20057;-91
2022/10/10 05:22:38;;;;;;;;;;;;;;;;;;4947274;28;19930;-91
2022/10/10 05:25:03;;;;;;;;;;;;;;;;;;4951945;29;19923;-92
2022/10/10 05:27:29;;;;;;;;;;;;;;;;;;4952441;28;19926;-92
2022/10/10 05:29:54;;;;;;;;;;;;;;;;;;4951334;28;19930;-92
2022/10/10 05:32:26;;;;;;;;;;;;;;;;;;4951325;28;19914;-93
2022/10/10 05:34:51;;;;;;;;;;;;;;;;;;4952053;28;19994;-94
2022/10/10 05:37:17;;;;;;;;;;;;;;;;;;4937997;29;19925;-91
2022/10/10 05:39:42;;;;;;;;;;;;;;;;;;4938405;29;20014;-93
2022/10/10 05:42:09;;;;;;;;;;;;;;;;;;4935971;29;19978;-91
2022/10/10 05:44:39;;;;;;;;;;;;;;;;;;4950617;29;20707;-92
2022/10/10 05:47:04;;;;;;;;;;;;;;;;;;4938175;29;19933;-90
2022/10/10 05:49:30;;;;;;;;;;;;;;;;;;4936308;29;19923;-92
2022/10/10 05:51:55;;;;;;;;;;;;;;;;;;4936612;29;19966;-92
2022/10/10 05:54:21;;;;;;;;;;;;;;;;;;4920019;29;19919;-92
2022/10/10 05:56:56;;;;;;;;;;;;;;;;;;;;;
2022/10/10 05:59:28;;;;;;;;;;;;;;;;;;4936490;29;19923;-89
2022/10/10 06:02:19;;;;;;;;;;;;;;;;;;4949255;29;19918;-91
2022/10/10 06:04:50;;;;;;;;;;;;;;;;;;4949797;29;19919;-87
2022/10/10 06:07:16;;;;;;;;;;;;;;;;;;4930937;29;20067;-88
2022/10/10 06:09:42;;;;;;;;;;;;;;;;;;4932943;29;20001;-90
2022/10/10 06:12:11;;;;;;;;;;;;;;;;;;4934985;29;20672;-94
2022/10/10 06:14:36;;;;;;;;;;;;;;;;;;4934969;29;19929;-90
2022/10/10 06:17:02;;;;;;;;;;;;;;;;;;4936077;29;19919;-92
2022/10/10 06:19:27;;;;;;;;;;;;;;;;;;4935585;29;19926;-92
2022/10/10 06:21:53;;;;;;;;;;;;;;;;;;4936110;29;19911;-94
2022/10/10 06:24:18;;;;;;;;;;;;;;;;;;4936155;29;19970;-93
2022/10/10 06:26:44;;;;;;;;;;;;;;;;;;4936625;29;19923;-94
2022/10/10 06:29:09;;;;;;;;;;;;;;;;;;4938853;29;20011;-90
2022/10/10 06:31:38;;;;;;;;;;;;;;;;;;4939364;29;19922;-90
2022/10/10 06:34:04;;;;;;;;;;;;;;;;;;4922962;29;19915;-92
2022/10/10 06:36:35;;;;;;;;;;;;;;;;;;4939757;29;19942;-91
2022/10/10 06:39:01;;;;;;;;;;;;;;;;;;4939435;29;19919;-92
2022/10/10 06:41:26;;;;;;;;;;;;;;;;;;4939531;29;19914;-90
2022/10/10 06:43:52;;;;;;;;;;;;;;;;;;4922179;29;19919;-91
2022/10/10 06:46:17;;;;;;;;;;;;;;;;;;4938148;29;19970;-93
2022/10/10 06:48:43;;;;;;;;;;;;;;;;;;4922653;29;19966;-92
2022/10/10 06:51:11;;;;;;;;;;;;;;;;;;4939766;29;19927;-91
2022/10/10 06:53:37;;;;;;;;;;;;;;;;;;4938628;29;20379;-91
2022/10/10 06:56:03;;;;;;;;;;;;;;;;;;4938561;29;19919;-92
2022/10/10 06:58:32;;;;;;;;;;;;;;;;;;4938596;29;19926;-92
2022/10/10 07:00:59;;;;;;;;;;;;;;;;;;4938970;29;19981;-92
2022/10/10 07:03:24;;;;;;;;;;;;;;;;;;4937852;29;19919;-93
2022/10/10 07:05:51;;;;;;;;;;;;;;;;;;4940405;29;19923;-93
2022/10/10 07:08:17;;;;;;;;;;;;;;;;;;4940462;29;19974;-91
2022/10/10 07:10:42;;;;;;;;;;;;;;;;;;4940261;29;19923;-92
2022/10/10 07:13:08;;;;;;;;;;;;;;;;;;4940351;29;20342;-93
2022/10/10 07:15:33;;;;;;;;;;;;;;;;;;4939495;29;20386;-93
2022/10/10 07:17:59;;;;;;;;;;;;;;;;;;4922459;29;19957;-95
2022/10/10 07:20:25;;;;;;;;;;;;;;;;;;4922292;29;19978;-93
2022/10/10 07:22:50;;;;;;;;;;;;;;;;;;4921825;29;19970;-94
2022/10/10 07:25:16;;;;;;;;;;;;;;;;;;4940363;28;19946;-92
2022/10/10 07:27:41;;;;;;;;;;;;;;;;;;4939215;29;20002;-93
2022/10/10 07:30:07;;;;;;;;;;;;;;;;;;4939004;29;20011;-92
2022/10/10 07:32:33;;;;;;;;;;;;;;;;;;4938823;29;19918;-93
2022/10/10 07:34:58;;;;;;;;;;;;;;;;;;4921186;29;19919;-91
2022/10/10 07:37:24;;;;;;;;;;;;;;;;;;4938469;29;19926;-90
2022/10/10 07:39:51;;;;;;;;;;;;;;;;;;4920460;29;19919;-94
2022/10/10 07:42:16;;;;;;;;;;;;;;;;;;4921795;29;19965;-93
2022/10/10 07:44:42;;;;;;;;;;;;;;;;;;4921711;29;19987;-91
2022/10/10 07:47:07;;;;;;;;;;;;;;;;;;4938811;29;19919;-92
2022/10/10 07:49:32;;;;;;;;;;;;;;;;;;4921992;29;20295;-92
2022/10/10 07:51:58;;;;;;;;;;;;;;;;;;4921703;29;20017;-93
2022/10/10 07:54:23;;;;;;;;;;;;;;;;;;4921838;29;19921;-92
2022/10/10 07:56:49;;;;;;;;;;;;;;;;;;4921170;29;19919;-91
2022/10/10 07:59:14;;;;;;;;;;;;;;;;;;4938638;29;20445;-92
2022/10/10 08:01:40;;;;;;;;;;;;;;;;;;4942506;29;19921;-91
2022/10/10 08:04:05;;;;;;;;;;;;;;;;;;4958492;28;20500;-91
2022/10/10 08:06:32;;;;;;;;;;;;;;;;;;4938756;28;19933;-92
2022/10/10 08:08:57;;;;;;;;;;;;;;;;;;4932214;29;19946;-91
2022/10/10 08:11:23;;;;;;;;;;;;;;;;;;4924879;29;20013;-90
2022/10/10 08:13:49;;;;;;;;;;;;;;;;;;4921325;29;19958;-91
2022/10/10 08:16:14;;;;;;;;;;;;;;;;;;4921234;29;19938;-89
2022/10/10 08:18:40;;;;;;;;;;;;;;;;;;4938157;29;19922;-91
2022/10/10 08:21:06;;;;;;;;;;;;;;;;;;4937856;29;19921;-89
2022/10/10 08:23:32;;;;;;;;;;;;;;;;;;4920722;29;20040;-90
2022/10/10 08:25:58;;;;;;;;;;;;;;;;;;4937478;29;19963;-91
2022/10/10 08:28:24;;;;;;;;;;;;;;;;;;4938223;29;20022;-92
2022/10/10 08:30:50;;;;;;;;;;;;;;;;;;4934663;29;19922;-88
2022/10/10 08:33:15;;;;;;;;;;;;;;;;;;4957003;29;20401;-93
2022/10/10 08:35:41;;;;;;;;;;;;;;;;;;4939348;29;19922;-90
2022/10/10 08:38:06;;;;;;;;;;;;;;;;;;4920126;29;19925;-89
2022/10/10 08:40:32;;;;;;;;;;;;;;;;;;4920435;29;19925;-92
2022/10/10 08:43:01;;;;;;;;;;;;;;;;;;4920344;29;20371;-93
2022/10/10 08:45:27;;;;;;;;;;;;;;;;;;4920384;29;19981;-91
2022/10/10 08:47:57;;;;;;;;;;;;;;;;;;4937007;29;20368;-91
2022/10/10 08:50:26;;;;;;;;;;;;;;;;;;4937041;29;19926;-92
2022/10/10 08:52:56;;;;;;;;;;;;;;;;;;4919787;29;20018;-94
2022/10/10 08:55:24;;;;;;;;;;;;;;;;;;4939337;29;19984;-93
2022/10/10 08:57:54;;;;;;;;;;;;;;;;;;4921425;29;19923;-92
2022/10/10 09:00:21;;;;;;;;;;;;;;;;;;4920959;29;19926;-92
2022/10/10 09:02:51;;;;;;;;;;;;;;;;;;4937309;29;19945;-92
2022/10/10 09:05:20;;;;;;;;;;;;;;;;;;4936952;29;19920;-91
2022/10/10 09:08:06;;;;;;;;;;;;;;;;;;4936743;29;19922;-93
2022/10/10 09:10:31;;;;;;;;;;;;;;;;;;4936438;29;19918;-93
2022/10/10 09:13:06;;;;;;;;;;;;;;;;;;4921360;29;20010;-91
2022/10/10 09:15:42;;;;;;;;;;;;;;;;;;4936692;29;19985;-92
2022/10/10 09:18:25;;;;;;;;;;;;;;;;;;4939509;29;19919;-91
2022/10/10 09:21:11;;;;;;;;;;;;;;;;;;4937722;29;20290;-91
2022/10/10 09:23:42;;;;;;;;;;;;;;;;;;4920189;29;19919;-90
2022/10/10 09:26:13;;;;;;;;;;;;;;;;;;4937704;29;19919;-92
2022/10/10 09:28:49;;;;;;;;;;;;;;;;;;4919271;29;20302;-89
2022/10/10 09:31:20;;;;;;;;;;;;;;;;;;4936638;29;20361;-91
2022/10/10 09:33:58;;;;;;;;;;;;;;;;;;4936512;29;19929;-92
2022/10/10 09:36:27;;;;;;;;;;;;;;;;;;4920558;29;19918;-94
2022/10/10 09:38:55;;;;;;;;;;;;;;;;;;4955302;29;20378;-93
2022/10/10 09:41:27;;;;;;;;;;;;;;;;;;4957135;29;20025;-94
2022/10/10 09:43:56;;;;;;;;;;;;;;;;;;4956181;29;19922;-92
2022/10/10 09:46:21;;;;;;;;;;;;;;;;;;4955629;29;19924;-90
2022/10/10 09:48:47;;;;;;;;;;;;;;;;;;4940129;29;20013;-94
2022/10/10 09:51:14;;;;;;;;;;;;;;;;;;4938508;29;19942;-90
2022/10/10 09:53:40;;;;;;;;;;;;;;;;;;4955826;29;20319;-92
2022/10/10 09:56:07;;;;;;;;;;;;;;;;;;4956051;29;19985;-92
2022/10/10 09:58:32;;;;;;;;;;;;;;;;;;4939522;29;19918;-92
2022/10/10 10:01:16;;;;;;;;;;;;;;;;;;4941228;29;20441;-93
2022/10/10 10:03:43;;;;;;;;;;;;;;;;;;4956200;29;19929;-92
2022/10/10 10:06:14;;;;;;;;;;;;;;;;;;4938468;29;19930;-90
2022/10/10 10:08:40;;;;;;;;;;;;;;;;;;4956857;29;19918;-92
2022/10/10 10:11:19;;;;;;;;;;;;;;;;;;4937860;29;19914;-92
2022/10/10 10:13:52;;;;;;;;;;;;;;;;;;4956525;29;19926;-92
2022/10/10 10:16:20;;;;;;;;;;;;;;;;;;4956705;29;19914;-90
2022/10/10 10:18:46;;;;;;;;;;;;;;;;;;4958632;29;19926;-90
2022/10/10 10:21:22;;;;;;;;;;;;;;;;;;4929718;29;19916;-92
2022/10/10 10:23:50;;;;;;;;;;;;;;;;;;4940269;29;19918;-91
2022/10/10 10:26:17;;;;;;;;;;;;;;;;;;4923198;29;19923;-91
2022/10/10 10:28:43;;;;;;;;;;;;;;;;;;4948532;29;19918;-93
2022/10/10 10:31:24;;;;;;;;;;;;;;;;;;4942414;29;19930;-89
2022/10/10 10:34:03;;;;;;;;;;;;;;;;;;4962252;29;20371;-90
2022/10/10 10:36:44;;;;;;;;;;;;;;;;;;4960934;29;19931;-92
2022/10/10 10:39:25;;;;;;;;;;;;;;;;;;4961223;29;19923;-91
2022/10/10 10:42:04;;;;;;;;;;;;;;;;;;4960425;29;20370;-92
2022/10/10 10:44:47;;;;;;;;;;;;;;;;;;4945586;29;19919;-91
2022/10/10 10:47:22;;;;;;;;;;;;;;;;;;4960406;29;20378;-91
2022/10/10 10:50:07;;;;;;;;;;;;;;;;;;4961568;29;19915;-91
2022/10/10 10:52:47;;;;;;;;;;;;;;;;;;4962765;29;19966;-91
2022/10/10 10:55:13;;;;;;;;;;;;;;;;;;4943834;29;19915;-92
2022/10/10 10:57:44;;;;;;;;;;;;;;;;;;4961933;29;19926;-92
2022/10/10 11:00:09;;;;;;;;;;;;;;;;;;4960961;29;19914;-91
2022/10/10 11:02:40;;;;;;;;;;;;;;;;;;4961961;29;19931;-92
2022/10/10 11:05:24;;;;;;;;;;;;;;;;;;4960125;29;20014;-91
2022/10/10 11:33:43;;;;;;;;;;;;;;;;;;4969952;23;19934;-91
2022/10/10 11:36:14;;;;;;;;;;;;;;;;;;4944174;29;19930;-87
2022/10/10 11:38:43;;;;;;;;;;;;;;;;;;4949882;28;19923;-89
2022/10/10 11:41:27;;;;;;;;;;;;;;;;;;4945358;28;19919;-90
2022/10/10 11:43:55;;;;;;;;;;;;;;;;;;4975211;28;19942;-89
2022/10/10 11:46:39;;;;;;;;;;;;;;;;;;4963289;28;19946;-88
2022/10/10 11:49:10;;;;;;;;;;;;;;;;;;4980270;28;19922;-89
2022/10/10 11:51:36;;;;;;;;;;;;;;;;;;4964733;28;20297;-90
2022/10/10 11:54:05;;;;;;;;;;;;;;;;;;4979614;28;19918;-90
2022/10/10 11:56:38;;;;;;;;;;;;;;;;;;4979115;28;19968;-90
2022/10/10 11:59:11;;;;;;;;;;;;;;;;;;4983383;28;19922;-91
2022/10/10 12:01:39;;;;;;;;;;;;;;;;;;4984164;28;19941;-91
2022/10/10 12:04:05;;;;;;;;;;;;;;;;;;4985757;28;19922;-95
2022/10/10 12:06:37;;;;;;;;;;;;;;;;;;4983084;28;19925;-90
2022/10/10 12:09:03;;;;;;;;;;;;;;;;;;4966901;28;19929;-91
2022/10/10 12:11:35;;;;;;;;;;;;;;;;;;4983350;28;20374;-93
2022/10/10 12:14:05;;;;;;;;;;;;;;;;;;4982846;28;20465;-91
2022/10/10 12:16:35;;;;;;;;;;;;;;;;;;4949517;28;19919;-92
2022/10/10 12:19:05;;;;;;;;;;;;;;;;;;4933262;29;19926;-93
2022/10/10 12:21:50;;;;;;;;;;;;;;;;;;4960396;28;19918;-93
2022/10/10 12:24:15;;;;;;;;;;;;;;;;;;4943790;29;19923;-89
2022/10/10 12:26:53;;;;;;;;;;;;;;;;;;4946993;29;19923;-93
2022/10/10 12:29:37;;;;;;;;;;;;;;;;;;4941065;29;19923;-90
2022/10/10 12:32:23;;;;;;;;;;;;;;;;;;4942848;29;19926;-91
2022/10/10 12:34:48;;;;;;;;;;;;;;;;;;4951889;28;19974;-92
2022/10/10 12:37:17;;;;;;;;;;;;;;;;;;4961227;28;20391;-95
2022/10/10 12:40:00;;;;;;;;;;;;;;;;;;4959432;28;19918;-93
2022/10/10 12:42:30;;;;;;;;;;;;;;;;;;4944928;29;19941;-91
2022/10/10 12:44:55;;;;;;;;;;;;;;;;;;4943986;29;19919;-93
2022/10/10 12:47:29;;;;;;;;;;;;;;;;;;4961510;28;19929;-91
2022/10/10 12:50:05;;;;;;;;;;;;;;;;;;4960853;29;20021;-91
2022/10/10 12:52:46;;;;;;;;;;;;;;;;;;4959824;29;19918;-90
2022/10/10 12:55:40;;;;;;;;;;;;;;;;;;4960114;29;19919;-90
2022/10/10 12:58:08;;;;;;;;;;;;;;;;;;4939172;29;19926;-90
2022/10/10 13:00:39;;;;;;;;;;;;;;;;;;4944263;29;19946;-91
2022/10/10 13:03:10;;;;;;;;;;;;;;;;;;4945655;29;20629;-91
2022/10/10 13:05:38;;;;;;;;;;;;;;;;;;4960826;29;19989;-93
2022/10/10 13:08:11;;;;;;;;;;;;;;;;;;4962441;28;19925;-91
2022/10/10 13:10:36;;;;;;;;;;;;;;;;;;4960776;28;19961;-90
2022/10/10 13:13:14;;;;;;;;;;;;;;;;;;4960429;28;19918;-89
2022/10/10 13:15:53;;;;;;;;;;;;;;;;;;4960585;28;19948;-90
2022/10/10 13:18:38;;;;;;;;;;;;;;;;;;4960792;29;19985;-91
2022/10/10 13:21:09;;;;;;;;;;;;;;;;;;4942166;29;20026;-92
2022/10/10 13:23:36;;;;;;;;;;;;;;;;;;4943492;29;20350;-92
2022/10/10 13:26:04;;;;;;;;;;;;;;;;;;4959079;28;19918;-90
2022/10/10 13:28:29;;;;;;;;;;;;;;;;;;4940410;29;20290;-92
2022/10/10 13:30:55;;;;;;;;;;;;;;;;;;4941460;29;19922;-91
2022/10/10 13:33:22;;;;;;;;;;;;;;;;;;4942778;28;19973;-94
2022/10/10 13:35:48;;;;;;;;;;;;;;;;;;4959835;28;19950;-92
2022/10/10 13:38:14;;;;;;;;;;;;;;;;;;4960280;28;20166;-91
2022/10/10 13:40:41;;;;;;;;;;;;;;;;;;4940114;28;19919;-92
2022/10/10 13:43:15;;;;;;;;;;;;;;;;;;4961190;28;19926;-91
2022/10/10 13:45:50;;;;;;;;;;;;;;;;;;4944955;29;19918;-91
2022/10/10 13:48:34;;;;;;;;;;;;;;;;;;4961279;28;19985;-93
2022/10/10 13:51:02;;;;;;;;;;;;;;;;;;4956810;28;19923;-92
2022/10/10 13:53:35;;;;;;;;;;;;;;;;;;4941839;28;20058;-93
2022/10/10 13:56:15;;;;;;;;;;;;;;;;;;4940341;29;20398;-91
2022/10/10 13:58:44;;;;;;;;;;;;;;;;;;4937609;29;19918;-92
2022/10/10 14:01:18;;;;;;;;;;;;;;;;;;4920097;29;20383;-93
2022/10/10 14:03:45;;;;;;;;;;;;;;;;;;4934758;29;19925;-91
2022/10/10 14:06:15;;;;;;;;;;;;;;;;;;4957628;28;19997;-94
2022/10/10 14:08:41;;;;;;;;;;;;;;;;;;4940031;29;20020;-92
2022/10/10 14:11:07;;;;;;;;;;;;;;;;;;4959734;29;19922;-90
2022/10/10 14:13:37;;;;;;;;;;;;;;;;;;4946787;29;19985;-91
2022/10/10 14:16:17;;;;;;;;;;;;;;;;;;4958731;29;19918;-91
2022/10/10 14:18:43;;;;;;;;;;;;;;;;;;4937557;29;19962;-91
2022/10/10 14:21:09;;;;;;;;;;;;;;;;;;4939251;29;20306;-93
2022/10/10 14:23:38;;;;;;;;;;;;;;;;;;4939156;29;19923;-92
2022/10/10 14:26:04;;;;;;;;;;;;;;;;;;4938954;29;19919;-93
2022/10/10 14:28:31;;;;;;;;;;;;;;;;;;4920121;29;20350;-92
2022/10/10 14:30:57;;;;;;;;;;;;;;;;;;4921267;29;20382;-94
2022/10/10 14:33:22;;;;;;;;;;;;;;;;;;4920743;29;19923;-91
2022/10/10 14:35:48;;;;;;;;;;;;;;;;;;4938524;29;19923;-93
2022/10/10 14:38:14;;;;;;;;;;;;;;;;;;4921349;29;19922;-92
2022/10/10 14:40:44;;;;;;;;;;;;;;;;;;4919814;29;19927;-91
2022/10/10 14:43:09;;;;;;;;;;;;;;;;;;4935224;29;19923;-92
2022/10/10 14:45:35;;;;;;;;;;;;;;;;;;4935947;29;20404;-92
2022/10/10 14:48:00;;;;;;;;;;;;;;;;;;4936445;29;19927;-90
2022/10/10 14:50:29;;;;;;;;;;;;;;;;;;4923406;29;19976;-89
2022/10/10 14:52:55;;;;;;;;;;;;;;;;;;4939579;29;19919;-95
2022/10/10 14:55:20;;;;;;;;;;;;;;;;;;4923452;29;19923;-92
2022/10/10 14:57:46;;;;;;;;;;;;;;;;;;4923506;29;19922;-92
2022/10/10 15:00:16;;;;;;;;;;;;;;;;;;4922824;29;19930;-93
2022/10/10 15:02:41;;;;;;;;;;;;;;;;;;4923749;29;19923;-93
2022/10/10 15:05:07;;;;;;;;;;;;;;;;;;4940730;29;19919;-91
2022/10/10 15:07:32;;;;;;;;;;;;;;;;;;4923133;29;19919;-92
2022/10/10 15:09:58;;;;;;;;;;;;;;;;;;4941399;29;19974;-91
2022/10/10 15:12:23;;;;;;;;;;;;;;;;;;4945293;29;19926;-92
2022/10/10 15:14:49;;;;;;;;;;;;;;;;;;4946646;29;19958;-91
2022/10/10 15:17:17;;;;;;;;;;;;;;;;;;4965918;28;19925;-93
2022/10/10 15:19:42;;;;;;;;;;;;;;;;;;4947665;29;19929;-91
2022/10/10 15:22:08;;;;;;;;;;;;;;;;;;4932446;29;19998;-93
2022/10/10 15:24:44;;;;;;;;;;;;;;;;;;4954207;28;19937;-93
2022/10/10 15:33:19;;;;;;;;;;;;;;;;;;4974448;23;19977;-93
2022/10/10 16:16:41;;;;;;;;;;;;;;;;;;4978500;23;19969;-92
2022/10/10 16:19:07;;;;;;;;;;;;;;;;;;4931034;29;20326;-90
2022/10/10 16:21:32;;;;;;;;;;;;;;;;;;4946583;29;19923;-91
2022/10/10 16:24:00;;;;;;;;;;;;;;;;;;4967621;29;19962;-92
2022/10/10 16:26:40;;;;;;;;;;;;;;;;;;4977248;23;19950;-90
2022/10/10 16:29:06;;;;;;;;;;;;;;;;;;4966269;28;19926;-91
2022/10/10 16:31:37;;;;;;;;;;;;;;;;;;4964567;28;20386;-91
2022/10/10 16:34:03;;;;;;;;;;;;;;;;;;4947913;29;19927;-91
2022/10/10 16:36:30;;;;;;;;;;;;;;;;;;4959527;29;19942;-91
2022/10/10 16:38:56;;;;;;;;;;;;;;;;;;4961410;29;19962;-92
2022/10/10 16:41:24;;;;;;;;;;;;;;;;;;5017194;23;19932;-92
2022/10/10 16:44:16;;;;;;;;;;;;;;;;;;4991343;23;19927;-90
2022/10/10 16:52:36;;;;;;;;;;;;;;;;;;4995521;23;19926;-93
2022/10/10 16:57:58;;;;;;;;;;;;;;;;;;5001530;23;20401;-91
2022/10/10 17:00:27;;;;;;;;;;;;;;;;;;4979966;23;19926;-91
2022/10/10 17:11:37;;;;;;;;;;;;;;;;;;5005081;23;19984;-91
2022/10/10 17:14:02;;;;;;;;;;;;;;;;;;4962212;28;19969;-93
2022/10/10 17:16:46;;;;;;;;;;;;;;;;;;4964838;28;19918;-91
2022/10/10 17:19:12;;;;;;;;;;;;;;;;;;4961254;28;20060;-91
2022/10/10 17:21:37;;;;;;;;;;;;;;;;;;4975382;28;20017;-91
2022/10/10 17:24:03;;;;;;;;;;;;;;;;;;4976519;28;19998;-91
2022/10/10 17:26:28;;;;;;;;;;;;;;;;;;4965072;23;19926;-90
2022/10/10 17:31:49;;;;;;;;;;;;;;;;;;5009262;23;19941;-92
2022/10/10 17:34:15;;;;;;;;;;;;;;;;;;4957026;23;19965;-91
2022/10/10 17:36:42;;;;;;;;;;;;;;;;;;4969408;28;19993;-92
2022/10/10 17:39:10;;;;;;;;;;;;;;;;;;4969972;28;19922;-93
2022/10/10 17:44:01;;;;;;;;;;;;;;;;;;5080608;23;20032;-93
2022/10/10 17:46:40;;;;;;;;;;;;;;;;;;4964150;28;19973;-91
2022/10/10 17:49:18;;;;;;;;;;;;;;;;;;;;;
2022/10/10 17:58:03;;;;;;;;;;;;;;;;;;4955983;23;19953;-89
2022/10/10 18:00:29;;;;;;;;;;;;;;;;;;4943709;28;19927;-91
2022/10/10 18:03:02;;;;;;;;;;;;;;;;;;4960435;23;20347;-92
2022/10/10 18:05:29;;;;;;;;;;;;;;;;;;4931806;29;19931;-94
2022/10/10 18:07:56;;;;;;;;;;;;;;;;;;4936766;28;19933;-92
2022/10/10 18:10:21;;;;;;;;;;;;;;;;;;4926196;29;20002;-91
2022/10/10 18:12:47;;;;;;;;;;;;;;;;;;4923498;29;20041;-92
2022/10/10 18:15:12;;;;;;;;;;;;;;;;;;4937028;28;19923;-93
2022/10/10 18:20:41;;;;;;;;;;;;;;;;;;4948870;23;19933;-91
2022/10/10 18:23:06;;;;;;;;;;;;;;;;;;4924720;29;19932;-91
2022/10/10 18:25:32;;;;;;;;;;;;;;;;;;4930061;28;19946;-92
2022/10/10 18:27:58;;;;;;;;;;;;;;;;;;4948462;28;19922;-90
2022/10/10 18:30:23;;;;;;;;;;;;;;;;;;4933473;29;19923;-93
2022/10/10 18:32:49;;;;;;;;;;;;;;;;;;4943542;28;19918;-93
2022/10/10 18:35:16;;;;;;;;;;;;;;;;;;4943234;28;20374;-93
2022/10/10 18:37:42;;;;;;;;;;;;;;;;;;4941062;28;19925;-94
2022/10/10 18:40:07;;;;;;;;;;;;;;;;;;4936620;29;19974;-90
2022/10/10 18:42:33;;;;;;;;;;;;;;;;;;4926171;29;20290;-91